Time;durP1;ratioP1;P1;durP2;ratioP2;P2;SDS_P1;SDS_P2;PMS_P1;PMS_P2;Temp;Humidity;BMP_temperature;BMP_pressure;BME280_temperature;BME280_humidity;BME280_pressure;Samples;Min_cycle;Max_cycle;Signal;HPM_P1;HPM_P2
2022/06/24 00:00:29;;;;;;;;;5.00;5.00;;;;;-146.44;100.00;58906.56;5074199;28;45608;-60
2022/06/24 00:02:55;;;;;;;;;4.00;4.00;;;;;-146.44;100.00;58906.56;5073835;28;45484;-60
2022/06/24 00:05:20;;;;;;;;;5.00;5.00;;;;;-146.44;100.00;58906.56;5074201;28;45808;-60
2022/06/24 00:07:48;;;;;;;;;5.00;5.00;;;;;-146.44;100.00;58906.56;5074114;28;45481;-61
2022/06/24 00:10:15;;;;;;;;;4.75;3.50;;;;;-146.44;100.00;58906.56;5075409;28;45611;-61
2022/06/24 00:12:40;;;;;;;;;3.50;3.50;;;;;-146.44;100.00;58906.56;5077512;28;45504;-60
2022/06/24 00:15:06;;;;;;;;;5.25;5.25;;;;;-146.44;100.00;58906.56;5077534;28;45364;-61
2022/06/24 00:17:32;;;;;;;;;4.00;4.00;;;;;-146.44;100.00;58906.56;5059046;28;45493;-60
2022/06/24 00:19:59;;;;;;;;;5.50;5.50;;;;;-146.44;100.00;58906.56;5077675;28;45567;-61
2022/06/24 00:22:26;;;;;;;;;4.50;4.50;;;;;-146.44;100.00;58906.56;5077027;28;46694;-61
2022/06/24 00:25:13;;;;;;;;;3.80;3.40;;;;;-146.44;100.00;58906.56;5077358;28;45886;-61
2022/06/24 00:27:40;;;;;;;;;5.00;4.25;;;;;-146.44;100.00;58906.56;5077366;28;45514;-61
2022/06/24 00:30:14;;;;;;;;;3.00;3.00;;;;;-146.44;100.00;58906.56;5077150;28;45530;-63
2022/06/24 00:32:41;;;;;;;;;4.25;4.00;;;;;-146.44;100.00;58906.56;5077096;28;45565;-61
2022/06/24 00:35:09;;;;;;;;;4.20;4.20;;;;;-146.44;100.00;58906.56;5077090;28;45473;-61
2022/06/24 00:37:36;;;;;;;;;5.75;4.00;;;;;-146.44;100.00;58906.56;5077205;28;45575;-61
2022/06/24 00:40:11;;;;;;;;;4.50;4.00;;;;;-146.44;100.00;58906.56;5077086;28;45434;-61
2022/06/24 00:42:38;;;;;;;;;4.25;4.25;;;;;-146.44;100.00;58906.56;5076393;28;45468;-61
2022/06/24 00:45:16;;;;;;;;;3.00;3.00;;;;;-146.44;100.00;58906.56;5076988;28;45516;-61
2022/06/24 00:47:42;;;;;;;;;2.80;2.80;;;;;-146.44;100.00;58906.56;5077210;28;45544;-61
2022/06/24 00:50:31;;;;;;;;;3.50;3.50;;;;;-146.44;100.00;58906.56;5077033;28;45637;-61
2022/06/24 00:52:59;;;;;;;;;4.50;4.50;;;;;-146.44;100.00;58906.56;5076996;28;45750;-61
2022/06/24 00:55:30;;;;;;;;;3.20;3.20;;;;;-146.44;100.00;58906.56;5076900;28;45434;-61
2022/06/24 00:57:59;;;;;;;;;3.75;3.75;;;;;-146.44;100.00;58906.56;5077043;28;45486;-61
2022/06/24 01:00:28;;;;;;;;;4.75;4.75;;;;;-146.44;100.00;58906.56;5076452;28;45469;-61
2022/06/24 01:03:14;;;;;;;;;3.00;3.00;;;;;-146.44;100.00;58906.56;5076586;28;46252;-60
2022/06/24 01:05:40;;;;;;;;;5.00;5.00;;;;;-146.44;100.00;58906.56;5076544;28;45500;-61
2022/06/24 01:08:11;;;;;;;;;5.50;4.00;;;;;-146.44;100.00;58906.56;5076510;28;45613;-60
2022/06/24 01:10:38;;;;;;;;;3.50;3.50;;;;;-146.44;100.00;58906.56;5076365;28;45398;-60
2022/06/24 01:13:10;;;;;;;;;4.75;4.75;;;;;-146.44;100.00;58906.56;5076487;28;46158;-60
2022/06/24 01:15:36;;;;;;;;;3.60;3.60;;;;;-146.44;100.00;58906.56;5076534;28;45486;-61
2022/06/24 01:18:02;;;;;;;;;4.00;4.00;;;;;-146.44;100.00;58906.56;5076290;28;45495;-60
2022/06/24 01:20:27;;;;;;;;;4.50;4.50;;;;;-146.44;100.00;58906.56;5076366;28;45464;-61
2022/06/24 01:22:53;;;;;;;;;3.00;3.00;;;;;-146.44;100.00;58906.56;5075203;28;45704;-61
2022/06/24 01:25:18;;;;;;;;;4.75;4.75;;;;;-146.44;100.00;58906.56;5076234;28;45460;-61
2022/06/24 01:27:43;;;;;;;;;2.50;2.50;;;;;-146.44;100.00;58906.56;5076476;28;45561;-60
2022/06/24 01:30:09;;;;;;;;;4.75;4.00;;;;;-146.44;100.00;58906.56;5076190;28;45518;-60
2022/06/24 01:32:35;;;;;;;;;3.50;3.50;;;;;-146.44;100.00;58906.56;5074616;28;45514;-61
2022/06/24 01:35:01;;;;;;;;;4.00;4.00;;;;;-146.44;100.00;58906.56;5076077;28;45480;-61
2022/06/24 01:37:27;;;;;;;;;4.00;4.00;;;;;-146.44;100.00;58906.56;5076529;28;45487;-60
2022/06/24 01:39:52;;;;;;;;;3.00;3.00;;;;;-146.44;100.00;58906.56;5076515;28;45497;-61
2022/06/24 01:42:17;;;;;;;;;4.50;3.75;;;;;-146.44;100.00;58906.56;5076219;28;45414;-60
2022/06/24 01:44:43;;;;;;;;;5.25;5.25;;;;;-146.44;100.00;58906.56;5075046;28;45522;-61
2022/06/24 01:47:08;;;;;;;;;4.25;4.25;;;;;-146.44;100.00;58906.56;5076626;28;45438;-61
2022/06/24 01:49:34;;;;;;;;;4.50;4.25;;;;;-146.44;100.00;58906.56;5076410;28;45559;-61
2022/06/24 01:51:59;;;;;;;;;4.25;4.25;;;;;-146.44;100.00;58906.56;5076446;28;45424;-60
2022/06/24 01:54:26;;;;;;;;;6.75;5.75;;;;;-146.44;100.00;58906.56;5076246;28;45506;-60
2022/06/24 01:56:53;;;;;;;;;4.50;4.50;;;;;-146.44;100.00;58906.56;5074533;28;45518;-61
2022/06/24 01:59:19;;;;;;;;;5.25;4.50;;;;;-146.44;100.00;58906.56;5076311;28;45652;-60
2022/06/24 02:01:45;;;;;;;;;3.50;3.50;;;;;-146.44;100.00;58906.56;5057900;28;47843;-60
2022/06/24 02:04:11;;;;;;;;;4.00;4.00;;;;;-146.44;100.00;58906.56;5074752;28;45448;-60
2022/06/24 02:06:37;;;;;;;;;5.50;5.50;;;;;-146.44;100.00;58906.56;5076232;28;45510;-60
2022/06/24 02:09:04;;;;;;;;;5.00;5.00;;;;;-146.44;100.00;58906.56;5075888;28;45502;-59
2022/06/24 02:14:14;;;;;;;;;4.00;4.00;;;;;-146.44;100.00;58906.56;5075896;28;45741;-60
2022/06/24 02:16:40;;;;;;;;;4.00;4.00;;;;;-146.44;100.00;58906.56;5075841;28;45489;-60
2022/06/24 02:19:07;;;;;;;;;3.25;3.25;;;;;-146.44;100.00;58906.56;5075703;28;45402;-60
2022/06/24 02:21:32;;;;;;;;;4.00;4.00;;;;;-146.44;100.00;58906.56;5075845;28;46085;-60
2022/06/24 02:23:57;;;;;;;;;6.00;4.50;;;;;-146.44;100.00;58906.56;5075662;28;45492;-60
2022/06/24 02:26:25;;;;;;;;;4.00;4.00;;;;;-146.44;100.00;58906.56;5075641;28;45392;-60
2022/06/24 02:28:51;;;;;;;;;3.50;3.50;;;;;-146.44;100.00;58906.56;5075623;28;45449;-60
2022/06/24 02:31:17;;;;;;;;;6.00;6.00;;;;;-146.44;100.00;58906.56;5075533;28;46393;-60
2022/06/24 02:33:42;;;;;;;;;4.75;4.75;;;;;-146.44;100.00;58906.56;5075296;28;45391;-61
2022/06/24 02:36:08;;;;;;;;;5.25;4.25;;;;;-146.44;100.00;58906.56;5075506;28;45705;-61
2022/06/24 02:38:34;;;;;;;;;4.50;4.50;;;;;-146.44;100.00;58906.56;5075278;28;45414;-61
2022/06/24 02:41:00;;;;;;;;;3.75;3.75;;;;;-146.44;100.00;58906.56;5075277;28;46115;-61
2022/06/24 02:43:36;;;;;;;;;5.40;4.60;;;;;-146.44;100.00;58906.56;5075293;28;46025;-60
2022/06/24 02:46:07;;;;;;;;;4.00;4.00;;;;;-146.44;100.00;58906.56;5075557;28;45535;-60
2022/06/24 02:48:35;;;;;;;;;5.00;5.00;;;;;-146.44;100.00;58906.56;5075378;28;45494;-60
2022/06/24 02:51:03;;;;;;;;;5.00;5.00;;;;;-146.44;100.00;58906.56;5075035;28;46388;-61
2022/06/24 02:53:29;;;;;;;;;4.20;4.20;;;;;-146.44;100.00;58906.56;5075200;28;45573;-61
2022/06/24 02:56:06;;;;;;;;;3.50;3.50;;;;;-146.44;100.00;58906.56;5075184;28;45422;-60
2022/06/24 02:58:32;;;;;;;;;3.00;3.00;;;;;-146.44;100.00;58906.56;5075292;28;45510;-61
2022/06/24 03:00:59;;;;;;;;;4.25;4.25;;;;;-146.44;100.00;58906.56;5075254;28;46916;-61
2022/06/24 03:03:25;;;;;;;;;5.00;5.00;;;;;-146.44;100.00;58906.56;5074941;28;45486;-61
2022/06/24 03:05:51;;;;;;;;;1.50;1.50;;;;;-146.44;100.00;58906.56;5075172;28;45565;-61
2022/06/24 03:08:19;;;;;;;;;3.25;3.25;;;;;-146.44;100.00;58906.56;5075257;28;45557;-61
2022/06/24 03:10:45;;;;;;;;;3.00;3.00;;;;;-146.44;100.00;58906.56;5074885;28;45652;-61
2022/06/24 03:13:11;;;;;;;;;3.00;3.00;;;;;-146.44;100.00;58906.56;5075195;28;45422;-61
2022/06/24 03:15:37;;;;;;;;;2.00;2.00;;;;;-146.44;100.00;58906.56;5075173;28;45494;-60
2022/06/24 03:18:02;;;;;;;;;3.00;3.00;;;;;-146.44;100.00;58906.56;5075002;28;45724;-61
2022/06/24 03:20:28;;;;;;;;;3.50;3.50;;;;;-146.44;100.00;58906.56;5074543;28;47533;-60
2022/06/24 03:22:54;;;;;;;;;6.25;4.50;;;;;-146.44;100.00;58906.56;5075103;28;45481;-61
2022/06/24 03:25:19;;;;;;;;;5.50;4.25;;;;;-146.44;100.00;58906.56;5075226;28;45443;-61
2022/06/24 03:27:45;;;;;;;;;6.00;4.25;;;;;-146.44;100.00;58906.56;5074802;28;45513;-61
2022/06/24 03:30:11;;;;;;;;;5.00;5.00;;;;;-146.44;100.00;58906.56;5074805;28;45586;-61
2022/06/24 03:32:37;;;;;;;;;4.00;4.00;;;;;-146.44;100.00;58906.56;5074909;28;45496;-60
2022/06/24 03:35:03;;;;;;;;;5.00;5.00;;;;;-146.44;100.00;58906.56;5074893;28;45464;-60
2022/06/24 03:37:29;;;;;;;;;4.50;4.00;;;;;-146.44;100.00;58906.56;5074687;28;45669;-61
2022/06/24 03:39:55;;;;;;;;;4.00;4.00;;;;;-146.44;100.00;58906.56;5074450;28;46352;-61
2022/06/24 03:42:20;;;;;;;;;5.00;5.00;;;;;-146.44;100.00;58906.56;5074350;28;45496;-61
2022/06/24 03:44:45;;;;;;;;;5.00;5.00;;;;;-146.44;100.00;58906.56;5075167;28;45572;-61
2022/06/24 03:47:11;;;;;;;;;5.00;5.00;;;;;-146.44;100.00;58906.56;5078415;28;45632;-61
2022/06/24 03:49:36;;;;;;;;;6.00;6.00;;;;;-146.44;100.00;58906.56;5078102;28;45443;-61
2022/06/24 03:52:02;;;;;;;;;4.25;4.25;;;;;-146.44;100.00;58906.56;5077836;28;45459;-61
2022/06/24 03:54:27;;;;;;;;;4.00;4.00;;;;;-146.44;100.00;58906.56;5077965;28;45532;-61
2022/06/24 03:56:53;;;;;;;;;5.50;5.50;;;;;-146.44;100.00;58906.56;5077762;28;45413;-60
2022/06/24 03:59:18;;;;;;;;;6.25;4.00;;;;;-146.44;100.00;58906.56;5077862;28;51929;-61
2022/06/24 04:01:43;;;;;;;;;4.00;4.00;;;;;-146.44;100.00;58906.56;5077750;28;45466;-61
2022/06/24 04:04:09;;;;;;;;;5.25;4.75;;;;;-146.44;100.00;58906.56;5077873;28;45465;-61
2022/06/24 04:06:35;;;;;;;;;5.50;5.50;;;;;-146.44;100.00;58906.56;5077959;28;45591;-61
2022/06/24 04:09:00;;;;;;;;;5.25;4.75;;;;;-146.44;100.00;58906.56;5077680;28;45591;-61
2022/06/24 04:11:25;;;;;;;;;6.00;6.00;;;;;-146.44;100.00;58906.56;5077680;28;45556;-61
2022/06/24 04:13:51;;;;;;;;;4.00;4.00;;;;;-146.44;100.00;58906.56;5077838;28;45702;-61
2022/06/24 04:16:16;;;;;;;;;5.00;5.00;;;;;-146.44;100.00;58906.56;5077751;28;45545;-61
2022/06/24 04:18:42;;;;;;;;;5.00;5.00;;;;;-146.44;100.00;58906.56;5077578;28;45564;-61
2022/06/24 04:21:15;;;;;;;;;3.75;3.75;;;;;-146.44;100.00;58906.56;5077602;28;45420;-61
2022/06/24 04:23:42;;;;;;;;;4.50;4.50;;;;;-146.44;100.00;58906.56;5077586;28;45604;-61
2022/06/24 04:26:08;;;;;;;;;5.25;5.25;;;;;-146.44;100.00;58906.56;5077765;28;45711;-61
2022/06/24 04:28:34;;;;;;;;;5.25;5.25;;;;;-146.44;100.00;58906.56;5077434;28;46558;-61
2022/06/24 04:31:00;;;;;;;;;4.00;4.00;;;;;-146.44;100.00;58906.56;5077112;28;45430;-61
2022/06/24 04:33:25;;;;;;;;;5.00;5.00;;;;;-146.44;100.00;58906.56;5077421;28;45802;-61
2022/06/24 04:35:51;;;;;;;;;5.75;4.75;;;;;-146.44;100.00;58906.56;5076088;28;45417;-61
2022/06/24 04:38:16;;;;;;;;;6.00;6.00;;;;;-146.44;100.00;58906.56;5076721;28;46897;-61
2022/06/24 04:40:42;;;;;;;;;5.50;5.25;;;;;-146.44;100.00;58906.56;5077273;28;46077;-61
2022/06/24 04:43:10;;;;;;;;;5.00;4.75;;;;;-146.44;100.00;58906.56;5077385;28;45403;-61
2022/06/24 04:45:37;;;;;;;;;6.00;5.00;;;;;-146.44;100.00;58906.56;5077201;28;45470;-61
2022/06/24 04:48:02;;;;;;;;;5.00;4.00;;;;;-146.44;100.00;58906.56;5077079;28;45506;-61
2022/06/24 04:50:28;;;;;;;;;5.00;5.00;;;;;-146.44;100.00;58906.56;5076586;28;45372;-61
2022/06/24 04:52:53;;;;;;;;;4.75;4.75;;;;;-146.44;100.00;58906.56;5076834;28;45524;-61
2022/06/24 04:55:19;;;;;;;;;4.00;4.00;;;;;-146.44;100.00;58906.56;5077017;28;45536;-61
2022/06/24 04:57:45;;;;;;;;;5.50;4.75;;;;;-146.44;100.00;58906.56;5075444;28;46721;-61
2022/06/24 05:00:12;;;;;;;;;7.00;5.00;;;;;-146.44;100.00;58906.56;5077106;28;45579;-61
2022/06/24 05:02:38;;;;;;;;;4.25;4.25;;;;;-146.44;100.00;58906.56;5077036;28;45434;-60
2022/06/24 05:05:03;;;;;;;;;4.50;4.50;;;;;-146.44;100.00;58906.56;5077010;28;45545;-60
2022/06/24 05:07:29;;;;;;;;;5.75;5.75;;;;;-146.44;100.00;58906.56;5076534;28;46284;-61
2022/06/24 05:09:54;;;;;;;;;6.00;6.00;;;;;-146.44;100.00;58906.56;5076713;28;45512;-61
2022/06/24 05:12:20;;;;;;;;;6.00;6.00;;;;;-146.44;100.00;58906.56;5076978;28;45509;-61
2022/06/24 05:14:45;;;;;;;;;6.50;6.25;;;;;-146.44;100.00;58906.56;5076910;28;45378;-62
2022/06/24 05:17:11;;;;;;;;;6.25;6.25;;;;;-146.44;100.00;58906.56;5076626;28;46239;-61
2022/06/24 05:19:37;;;;;;;;;5.00;5.00;;;;;-146.44;100.00;58906.56;5076762;28;45463;-61
2022/06/24 05:22:03;;;;;;;;;5.00;5.00;;;;;-146.44;100.00;58906.56;5076566;28;45461;-62
2022/06/24 05:24:28;;;;;;;;;7.00;7.00;;;;;-146.44;100.00;58906.56;5076693;28;45653;-61
2022/06/24 05:26:53;;;;;;;;;5.75;5.75;;;;;-146.44;100.00;58906.56;5076528;28;45472;-61
2022/06/24 05:29:19;;;;;;;;;5.50;5.25;;;;;-146.44;100.00;58906.56;5076308;28;45603;-62
2022/06/24 05:31:45;;;;;;;;;5.00;5.00;;;;;-146.44;100.00;58906.56;5076497;28;45522;-61
2022/06/24 05:34:10;;;;;;;;;6.25;6.25;;;;;-146.44;100.00;58906.56;5076678;28;45455;-62
2022/06/24 05:36:36;;;;;;;;;5.00;5.00;;;;;-146.44;100.00;58906.56;5076103;28;45410;-61
2022/06/24 05:39:03;;;;;;;;;6.50;6.50;;;;;-146.44;100.00;58906.56;5076392;28;45537;-61
2022/06/24 05:41:28;;;;;;;;;7.50;7.50;;;;;-146.44;100.00;58906.56;5076390;28;45469;-61
2022/06/24 05:43:53;;;;;;;;;7.00;7.00;;;;;-146.44;100.00;58906.56;5076302;28;45477;-61
2022/06/24 05:46:19;;;;;;;;;8.75;8.75;;;;;-146.44;100.00;58906.56;5076117;28;46301;-62
2022/06/24 05:48:44;;;;;;;;;7.50;6.75;;;;;-146.44;100.00;58906.56;5076146;28;45530;-62
2022/06/24 05:51:11;;;;;;;;;6.00;6.00;;;;;-146.44;100.00;58906.56;5076048;28;45465;-62
2022/06/24 05:56:21;;;;;;;;;5.00;5.00;;;;;-146.44;100.00;58906.56;5086867;27;45717;-61
2022/06/24 05:58:47;;;;;;;;;6.50;5.00;;;;;-146.44;100.00;58906.56;5057715;28;45362;-64
2022/06/24 06:01:13;;;;;;;;;5.50;5.50;;;;;-146.44;100.00;58906.56;5085716;27;45370;-60
2022/06/24 06:03:39;;;;;;;;;5.75;5.75;;;;;-146.44;100.00;58906.56;5076812;27;45671;-62
2022/06/24 06:06:06;;;;;;;;;5.00;5.00;;;;;-146.44;100.00;58906.56;5079587;27;46084;-65
2022/06/24 06:08:31;;;;;;;;;5.75;4.50;;;;;-146.44;100.00;58906.56;5095153;27;45493;-64
2022/06/24 06:10:56;;;;;;;;;7.00;6.50;;;;;-146.44;100.00;58906.56;5080106;27;45613;-61
2022/06/24 06:13:22;;;;;;;;;5.00;5.00;;;;;-146.44;100.00;58906.56;5080500;27;45619;-59
2022/06/24 06:15:47;;;;;;;;;5.50;5.50;;;;;-146.44;100.00;58906.56;5090899;27;45968;-60
2022/06/24 06:18:13;;;;;;;;;6.00;6.00;;;;;-146.44;100.00;58906.56;5060986;27;45509;-60
2022/06/24 06:20:38;;;;;;;;;7.00;4.25;;;;;-146.44;100.00;58906.56;5079728;27;45492;-60
2022/06/24 06:23:04;;;;;;;;;8.25;7.00;;;;;-146.44;100.00;58906.56;5074985;28;45680;-59
2022/06/24 06:25:30;;;;;;;;;4.00;4.00;;;;;-146.44;100.00;58906.56;5074961;28;45492;-59
2022/06/24 06:27:55;;;;;;;;;7.00;6.75;;;;;-146.44;100.00;58906.56;5075411;27;45599;-59
2022/06/24 06:30:21;;;;;;;;;6.25;6.25;;;;;-146.44;100.00;58906.56;5095338;27;45632;-60
2022/06/24 06:32:46;;;;;;;;;5.50;5.50;;;;;-146.44;100.00;58906.56;5087836;27;45452;-60
2022/06/24 06:35:11;;;;;;;;;5.00;5.00;;;;;-146.44;100.00;58906.56;5086293;27;46310;-60
2022/06/24 06:37:37;;;;;;;;;6.00;6.00;;;;;-146.44;100.00;58906.56;5095112;27;45418;-59
2022/06/24 06:40:02;;;;;;;;;6.75;6.00;;;;;-146.44;100.00;58906.56;5095038;27;45430;-59
2022/06/24 06:42:28;;;;;;;;;13.00;12.00;;;;;-146.44;100.00;58906.56;5088078;27;45649;-59
2022/06/24 06:44:55;;;;;;;;;6.00;6.00;;;;;-146.44;100.00;58906.56;5093423;27;46157;-60
2022/06/24 06:47:21;;;;;;;;;4.50;4.50;;;;;-146.44;100.00;58906.56;5090740;27;45500;-63
2022/06/24 06:49:46;;;;;;;;;7.00;7.00;;;;;-146.44;100.00;58906.56;5074249;28;45439;-60
2022/06/24 06:52:12;;;;;;;;;8.75;8.75;;;;;-146.44;100.00;58906.56;5073631;28;49530;-61
2022/06/24 06:54:38;;;;;;;;;5.75;5.50;;;;;-146.44;100.00;58906.56;5088213;27;45571;-61
2022/06/24 06:57:04;;;;;;;;;7.00;7.00;;;;;-146.44;100.00;58906.56;5092886;27;46094;-61
2022/06/24 06:59:29;;;;;;;;;6.00;4.75;;;;;-146.44;100.00;58906.56;5094515;27;45451;-61
2022/06/24 07:01:54;;;;;;;;;6.00;6.00;;;;;-146.44;100.00;58906.56;5093977;27;45607;-61
2022/06/24 07:04:20;;;;;;;;;4.75;4.75;;;;;-146.44;100.00;58906.56;5087188;27;54654;-61
2022/06/24 07:06:47;;;;;;;;;7.50;6.00;;;;;-146.44;100.00;58906.56;5074448;28;45490;-61
2022/06/24 07:09:12;;;;;;;;;6.00;4.25;;;;;-146.44;100.00;58906.56;5063743;27;45593;-60
2022/06/24 07:11:37;;;;;;;;;5.00;5.00;;;;;-146.44;100.00;58906.56;5094534;27;45411;-62
2022/06/24 07:14:03;;;;;;;;;2.75;2.75;;;;;-146.44;100.00;58906.56;5093824;27;46314;-61
2022/06/24 07:16:28;;;;;;;;;6.00;6.00;;;;;-146.44;100.00;58906.56;5094491;27;45546;-61
2022/06/24 07:18:54;;;;;;;;;6.50;5.00;;;;;-146.44;100.00;58906.56;5094092;27;45487;-60
2022/06/24 07:21:19;;;;;;;;;6.75;5.25;;;;;-146.44;100.00;58906.56;5093488;27;45473;-60
2022/06/24 07:23:44;;;;;;;;;5.00;5.00;;;;;-146.44;100.00;58906.56;5094106;27;45564;-60
2022/06/24 07:26:10;;;;;;;;;4.00;4.00;;;;;-146.44;100.00;58906.56;5075608;27;45460;-60
2022/06/24 07:28:36;;;;;;;;;6.50;6.50;;;;;-146.44;100.00;58906.56;5094295;27;45508;-61
2022/06/24 07:31:20;;;;;;;;;5.00;4.75;;;;;-146.44;100.00;58906.56;5094483;27;45541;-61
2022/06/24 07:33:46;;;;;;;;;4.00;4.00;;;;;-146.44;100.00;58906.56;5093976;27;46637;-60
2022/06/24 07:36:12;;;;;;;;;7.00;5.00;;;;;-146.44;100.00;58906.56;5094219;27;45472;-60
2022/06/24 07:38:38;;;;;;;;;5.50;5.50;;;;;-146.44;100.00;58906.56;5093953;27;45476;-60
2022/06/24 07:41:03;;;;;;;;;4.75;3.75;;;;;-146.44;100.00;58906.56;5075435;27;45593;-60
2022/06/24 07:43:29;;;;;;;;;5.50;4.50;;;;;-146.44;100.00;58906.56;5093859;27;45492;-61
2022/06/24 07:45:55;;;;;;;;;6.00;6.00;;;;;-146.44;100.00;58906.56;5093848;27;45496;-62
2022/06/24 07:48:21;;;;;;;;;5.25;3.75;;;;;-146.44;100.00;58906.56;5093950;27;45552;-61
2022/06/24 07:50:46;;;;;;;;;5.00;5.00;;;;;-146.44;100.00;58906.56;5075444;27;45582;-61
2022/06/24 07:53:11;;;;;;;;;13.50;12.50;;;;;-146.44;100.00;58906.56;5093671;27;45472;-61
2022/06/24 07:58:21;;;;;;;;;4.25;4.25;;;;;-146.44;100.00;58906.56;5093922;27;45616;-61
2022/06/24 08:00:47;;;;;;;;;5.00;5.00;;;;;-146.44;100.00;58906.56;5093830;27;45536;-61
2022/06/24 08:03:12;;;;;;;;;6.25;6.25;;;;;-146.44;100.00;58906.56;5093689;27;45567;-61
2022/06/24 08:05:37;;;;;;;;;4.25;4.25;;;;;-146.44;100.00;58906.56;5093449;27;45538;-61
2022/06/24 08:08:03;;;;;;;;;7.25;7.00;;;;;-146.44;100.00;58906.56;5093961;27;45443;-61
2022/06/24 08:10:29;;;;;;;;;5.25;5.25;;;;;-146.44;100.00;58906.56;5093859;27;45593;-61
2022/06/24 08:12:54;;;;;;;;;6.00;5.00;;;;;-146.44;100.00;58906.56;5093569;27;45554;-61
2022/06/24 08:15:19;;;;;;;;;2.50;2.25;;;;;-146.44;100.00;58906.56;5093571;27;45476;-61
2022/06/24 08:17:45;;;;;;;;;6.25;6.25;;;;;-146.44;100.00;58906.56;5093610;27;45855;-61
2022/06/24 08:20:11;;;;;;;;;6.25;6.25;;;;;-146.44;100.00;58906.56;5093658;27;45426;-61
2022/06/24 08:22:36;;;;;;;;;10.50;9.50;;;;;-146.44;100.00;58906.56;5093294;27;45654;-61
2022/06/24 08:25:02;;;;;;;;;6.00;5.75;;;;;-146.44;100.00;58906.56;5093371;27;45469;-61
2022/06/24 08:27:27;;;;;;;;;8.00;6.75;;;;;-146.44;100.00;58906.56;5093743;27;45638;-61
2022/06/24 08:29:53;;;;;;;;;9.25;9.25;;;;;-146.44;100.00;58906.56;5093298;27;46248;-60
2022/06/24 08:32:18;;;;;;;;;6.00;6.00;;;;;-146.44;100.00;58906.56;5095886;27;45458;-61
2022/06/24 08:34:44;;;;;;;;;6.00;5.00;;;;;-146.44;100.00;58906.56;5096712;27;45490;-61
2022/06/24 08:37:09;;;;;;;;;6.50;5.75;;;;;-146.44;100.00;58906.56;5096723;27;45517;-61
2022/06/24 08:39:34;;;;;;;;;6.00;5.00;;;;;-146.44;100.00;58906.56;5096884;27;45375;-61
2022/06/24 08:42:02;;;;;;;;;3.00;3.00;;;;;-146.44;100.00;58906.56;5096570;27;45535;-61
2022/06/24 08:44:27;;;;;;;;;5.25;4.00;;;;;-146.44;100.00;58906.56;5096605;27;45526;-61
2022/06/24 08:46:53;;;;;;;;;3.50;3.50;;;;;-146.44;100.00;58906.56;5078414;27;45400;-61
2022/06/24 08:49:19;;;;;;;;;2.25;2.25;;;;;-146.44;100.00;58906.56;5078409;27;45617;-61
2022/06/24 08:51:47;;;;;;;;;4.25;3.00;;;;;-146.44;100.00;58906.56;5078231;27;46539;-61
2022/06/24 08:54:16;;;;;;;;;3.25;3.25;;;;;-146.44;100.00;58906.56;5096505;27;45490;-61
2022/06/24 08:56:41;;;;;;;;;3.75;3.75;;;;;-146.44;100.00;58906.56;5096478;27;45553;-61
2022/06/24 08:59:07;;;;;;;;;3.50;3.50;;;;;-146.44;100.00;58906.56;5096607;27;45627;-61
2022/06/24 09:01:38;;;;;;;;;3.00;3.00;;;;;-146.44;100.00;58906.56;5096356;27;46720;-61
2022/06/24 09:04:03;;;;;;;;;5.00;3.25;;;;;-146.44;100.00;58906.56;5096336;27;45454;-61
2022/06/24 09:06:37;;;;;;;;;5.25;5.25;;;;;-146.44;100.00;58906.56;5096702;27;45439;-61
2022/06/24 09:09:03;;;;;;;;;4.00;3.00;;;;;-146.44;100.00;58906.56;5078270;27;45515;-61
2022/06/24 09:11:51;;;;;;;;;3.25;3.25;;;;;-146.44;100.00;58906.56;5096191;27;47209;-61
2022/06/24 09:14:16;;;;;;;;;3.50;3.50;;;;;-146.44;100.00;58906.56;5096251;27;45498;-61
2022/06/24 09:16:41;;;;;;;;;4.00;4.00;;;;;-146.44;100.00;58906.56;5096234;27;45499;-61
2022/06/24 09:19:07;;;;;;;;;2.25;2.25;;;;;-146.44;100.00;58906.56;5096269;27;45537;-61
2022/06/24 09:21:41;;;;;;;;;4.75;3.50;;;;;-146.44;100.00;58906.56;5095988;27;46195;-61
2022/06/24 09:24:07;;;;;;;;;5.00;4.00;;;;;-146.44;100.00;58906.56;5096280;27;45548;-61
2022/06/24 09:26:41;;;;;;;;;2.50;2.50;;;;;-146.44;100.00;58906.56;5094768;27;45508;-61
2022/06/24 09:29:14;;;;;;;;;3.00;3.00;;;;;-146.44;100.00;58906.56;5096293;27;45613;-61
2022/06/24 09:31:40;;;;;;;;;6.50;6.50;;;;;-146.44;100.00;58906.56;5096234;27;45593;-60
2022/06/24 09:34:11;;;;;;;;;4.00;4.00;;;;;-146.44;100.00;58906.56;5096028;27;45787;-61
2022/06/24 09:36:39;;;;;;;;;2.00;2.00;;;;;-146.44;100.00;58906.56;5096233;27;45484;-61
2022/06/24 09:39:07;;;;;;;;;3.25;3.25;;;;;-146.44;100.00;58906.56;5096071;27;45509;-61
2022/06/24 09:41:51;;;;;;;;;4.75;3.00;;;;;-146.44;100.00;58906.56;5095883;27;46358;-61
2022/06/24 09:44:18;;;;;;;;;4.00;4.00;;;;;-146.44;100.00;58906.56;5095464;27;45472;-61
2022/06/24 09:46:44;;;;;;;;;2.75;2.75;;;;;-146.44;100.00;58906.56;5096087;27;45450;-61
2022/06/24 09:49:13;;;;;;;;;6.00;6.00;;;;;-146.44;100.00;58906.56;5096212;27;45509;-61
2022/06/24 09:51:40;;;;;;;;;2.00;2.00;;;;;-146.44;100.00;58906.56;5095860;27;46256;-61
2022/06/24 09:54:07;;;;;;;;;3.00;3.00;;;;;-146.44;100.00;58906.56;5077595;27;45466;-61
2022/06/24 09:56:33;;;;;;;;;1.75;1.75;;;;;-146.44;100.00;58906.56;5095875;27;45497;-61
2022/06/24 10:01:46;;;;;;;;;5.50;5.50;;;;;-146.44;100.00;58906.56;5095609;27;45943;-60
2022/06/24 10:04:14;;;;;;;;;2.00;2.00;;;;;-146.44;100.00;58906.56;5095745;27;45406;-60
2022/06/24 10:06:42;;;;;;;;;1.75;1.75;;;;;-146.44;100.00;58906.56;5095798;27;45480;-61
2022/06/24 10:09:08;;;;;;;;;1.00;1.00;;;;;-146.44;100.00;58906.56;5095764;27;45584;-61
2022/06/24 10:11:34;;;;;;;;;1.00;1.00;;;;;-146.44;100.00;58906.56;5095502;27;45485;-61
2022/06/24 10:14:01;;;;;;;;;2.25;2.25;;;;;-146.44;100.00;58906.56;5077139;27;45426;-61
2022/06/24 10:16:27;;;;;;;;;2.00;2.00;;;;;-146.44;100.00;58906.56;5094395;27;45433;-61
2022/06/24 10:18:54;;;;;;;;;1.25;1.25;;;;;-146.44;100.00;58906.56;5095524;27;45454;-61
2022/06/24 10:21:20;;;;;;;;;1.25;1.25;;;;;-146.44;100.00;58906.56;5093653;27;46647;-61
2022/06/24 10:23:50;;;;;;;;;1.40;1.40;;;;;-146.44;100.00;58906.56;5095311;27;45552;-61
2022/06/24 10:26:21;;;;;;;;;2.00;1.75;;;;;-146.44;100.00;58906.56;5095225;27;45536;-61
2022/06/24 10:29:05;;;;;;;;;2.75;2.75;;;;;-146.44;100.00;58906.56;5095234;27;45495;-61
2022/06/24 10:31:42;;;;;;;;;4.25;4.25;;;;;-146.44;100.00;58906.56;5095007;27;46585;-61
2022/06/24 10:34:12;;;;;;;;;3.80;2.20;;;;;-146.44;100.00;58906.56;5095084;27;45422;-61
2022/06/24 10:36:37;;;;;;;;;3.75;3.75;;;;;-146.44;100.00;58906.56;5095147;27;45547;-61
2022/06/24 10:39:11;;;;;;;;;2.00;2.00;;;;;-146.44;100.00;58906.56;5095061;27;45430;-61
2022/06/24 10:41:38;;;;;;;;;4.50;3.50;;;;;-146.44;100.00;58906.56;5094740;27;46411;-60
2022/06/24 10:44:26;;;;;;;;;5.75;5.75;;;;;-146.44;100.00;58906.56;5094958;27;45433;-61
2022/06/24 10:47:04;;;;;;;;;3.25;3.00;;;;;-146.44;100.00;58906.56;5094998;27;45514;-60
2022/06/24 10:52:48;;;;;;;;;3.00;3.00;;;;;-146.44;100.00;58906.56;5094290;27;46004;-61
2022/06/24 10:57:45;;;;;;;;;1.75;1.75;;;;;-146.44;100.00;58906.56;5094829;27;45587;-61
2022/06/24 11:00:11;;;;;;;;;4.00;3.00;;;;;-146.44;100.00;58906.56;5076403;27;45461;-61
2022/06/24 11:02:37;;;;;;;;;2.75;2.75;;;;;-146.44;100.00;58906.56;5094446;27;45443;-60
2022/06/24 11:05:08;;;;;;;;;3.25;3.25;;;;;-146.44;100.00;58906.56;5076393;27;45542;-61
2022/06/24 11:07:33;;;;;;;;;2.00;2.00;;;;;-146.44;100.00;58906.56;5092704;27;45577;-60
2022/06/24 11:09:59;;;;;;;;;3.50;3.00;;;;;-146.44;100.00;58906.56;5077667;27;46265;-60
2022/06/24 11:12:29;;;;;;;;;2.00;2.00;;;;;-146.44;100.00;58906.56;5083813;27;46179;-60
2022/06/24 11:14:55;;;;;;;;;5.75;5.75;;;;;-146.44;100.00;58906.56;5077425;27;45475;-61
2022/06/24 11:17:25;;;;;;;;;3.50;3.50;;;;;-146.44;100.00;58906.56;5083876;27;45520;-60
2022/06/24 11:19:51;;;;;;;;;4.25;4.25;;;;;-146.44;100.00;58906.56;5075503;28;45439;-60
2022/06/24 11:22:16;;;;;;;;;1.00;1.00;;;;;-146.44;100.00;58906.56;5073953;28;46182;-62
2022/06/24 11:24:47;;;;;;;;;10.25;10.25;;;;;-146.44;100.00;58906.56;5088551;27;45516;-63